Startpagina
METAR-TAF:

METAR-TAF

Vliegvelden :

Tongatapu, Tonga

breedte: 21-14S, lengte: 175-09W, hoogte: 38 m

Actueel weer

Dit bericht is 58 minuten geleden gemaakt, om 01:00 UTC
Wind 2 kt uit variabele richting
Temperatuur 24°C
Vochtigheid 61%
Druk 1017 hPa
Zicht 10 km of meer
Weinig wolken op 1700 ft
Verspreide wolken op 12000 ft

METAR: NFTF 230100Z VRB02KT 9999 FEW017 SCT120 24/16 Q1017

Tijdstip: 14:58 (01:58 UTC)

Verwachting

Dit bericht is 2 uur en het 36 minuten geleden gemaakt, om 23:22 UTC
Verwachting geldig van 23 om 00 UTC tot 23 om 24 UTC
Wind 3 kt uit variabele richting
Zicht 10 km of meer
Weinig wolken op 1800 ft
Verspreide wolken op 10000 ft

TAF: NFTF 222322Z 2300/2324 VRB03KT 9999 FEW018 SCT100

Waarnemingen en weersverwachtingen van meer dan 4000 vliegvelden (METAR en TAF).

De beschikbare stations zijn de gele en rode punten op de kaart.

Ga met uw muis naar het station om de naam te zien.

Klik dan om waarnemingen en weersverwachtingen te zien.

kaart wijzigen: klik op de groene knoppen met een zwart kruis om in te zoomen, op de groene knop met een streepje om uit te zoomen of op de groene pijlen voor aangrenzende kaarten.


METAR-TAF: